sensor_id;sensor_type;location;lat;lon;timestamp;P1;durP1;ratioP1;P2;durP2;ratioP2
52744;SDS011;38637;49.984;20.426;2024-03-06T00:00:12;55.70;;;32.60;;
52744;SDS011;38637;49.984;20.426;2024-03-06T00:02:38;45.88;;;29.00;;
52744;SDS011;38637;49.984;20.426;2024-03-06T00:05:03;48.17;;;31.57;;
52744;SDS011;38637;49.984;20.426;2024-03-06T00:07:29;65.68;;;35.90;;
52744;SDS011;38637;49.984;20.426;2024-03-06T00:09:55;66.73;;;37.37;;
52744;SDS011;38637;49.984;20.426;2024-03-06T00:12:20;74.03;;;43.70;;
52744;SDS011;38637;49.984;20.426;2024-03-06T00:14:46;84.80;;;73.30;;
52744;SDS011;38637;49.984;20.426;2024-03-06T00:17:11;58.13;;;38.43;;
52744;SDS011;38637;49.984;20.426;2024-03-06T00:19:36;58.03;;;35.73;;
52744;SDS011;38637;49.984;20.426;2024-03-06T00:22:01;69.80;;;43.03;;
52744;SDS011;38637;49.984;20.426;2024-03-06T00:24:27;68.30;;;39.77;;
52744;SDS011;38637;49.984;20.426;2024-03-06T00:26:53;63.57;;;37.90;;
52744;SDS011;38637;49.984;20.426;2024-03-06T00:29:18;63.33;;;38.83;;
52744;SDS011;38637;49.984;20.426;2024-03-06T00:31:44;67.07;;;38.37;;
52744;SDS011;38637;49.984;20.426;2024-03-06T00:34:10;69.57;;;42.33;;
52744;SDS011;38637;49.984;20.426;2024-03-06T00:36:36;60.28;;;36.72;;
52744;SDS011;38637;49.984;20.426;2024-03-06T00:39:02;64.75;;;36.55;;
52744;SDS011;38637;49.984;20.426;2024-03-06T00:41:29;59.25;;;38.33;;
52744;SDS011;38637;49.984;20.426;2024-03-06T00:43:55;54.40;;;33.97;;
52744;SDS011;38637;49.984;20.426;2024-03-06T00:46:20;48.13;;;31.27;;
52744;SDS011;38637;49.984;20.426;2024-03-06T00:48:45;54.70;;;31.53;;
52744;SDS011;38637;49.984;20.426;2024-03-06T00:51:11;60.13;;;36.73;;
52744;SDS011;38637;49.984;20.426;2024-03-06T00:53:36;57.93;;;33.80;;
52744;SDS011;38637;49.984;20.426;2024-03-06T00:56:02;59.07;;;35.57;;
52744;SDS011;38637;49.984;20.426;2024-03-06T00:58:27;58.33;;;34.33;;
52744;SDS011;38637;49.984;20.426;2024-03-06T01:00:53;60.90;;;36.33;;
52744;SDS011;38637;49.984;20.426;2024-03-06T01:03:18;56.10;;;36.00;;
52744;SDS011;38637;49.984;20.426;2024-03-06T01:05:43;62.63;;;36.57;;
52744;SDS011;38637;49.984;20.426;2024-03-06T01:08:09;53.27;;;34.10;;
52744;SDS011;38637;49.984;20.426;2024-03-06T01:10:34;50.77;;;32.93;;
52744;SDS011;38637;49.984;20.426;2024-03-06T01:12:59;55.13;;;34.50;;
52744;SDS011;38637;49.984;20.426;2024-03-06T01:15:24;56.63;;;36.27;;
52744;SDS011;38637;49.984;20.426;2024-03-06T01:17:50;63.07;;;38.60;;
52744;SDS011;38637;49.984;20.426;2024-03-06T01:20:15;69.53;;;43.27;;
52744;SDS011;38637;49.984;20.426;2024-03-06T01:22:41;70.80;;;44.07;;
52744;SDS011;38637;49.984;20.426;2024-03-06T01:25:06;69.23;;;42.10;;
52744;SDS011;38637;49.984;20.426;2024-03-06T01:27:32;63.75;;;41.08;;
52744;SDS011;38637;49.984;20.426;2024-03-06T01:29:57;62.37;;;36.93;;
52744;SDS011;38637;49.984;20.426;2024-03-06T01:32:23;58.17;;;36.20;;
52744;SDS011;38637;49.984;20.426;2024-03-06T01:34:48;60.30;;;38.43;;
52744;SDS011;38637;49.984;20.426;2024-03-06T01:37:13;56.83;;;36.40;;
52744;SDS011;38637;49.984;20.426;2024-03-06T01:39:38;58.23;;;38.73;;
52744;SDS011;38637;49.984;20.426;2024-03-06T01:42:04;59.93;;;36.93;;
52744;SDS011;38637;49.984;20.426;2024-03-06T01:44:29;58.80;;;36.97;;
52744;SDS011;38637;49.984;20.426;2024-03-06T01:46:54;59.43;;;39.20;;
52744;SDS011;38637;49.984;20.426;2024-03-06T01:49:20;57.77;;;35.43;;
52744;SDS011;38637;49.984;20.426;2024-03-06T01:51:51;57.97;;;49.00;;
52744;SDS011;38637;49.984;20.426;2024-03-06T01:54:20;51.85;;;29.70;;
52744;SDS011;38637;49.984;20.426;2024-03-06T01:56:46;48.53;;;30.97;;
52744;SDS011;38637;49.984;20.426;2024-03-06T01:59:17;69.38;;;43.83;;
52744;SDS011;38637;49.984;20.426;2024-03-06T02:01:46;106.85;;;66.60;;
52744;SDS011;38637;49.984;20.426;2024-03-06T02:04:11;145.87;;;94.83;;
52744;SDS011;38637;49.984;20.426;2024-03-06T02:06:40;122.37;;;79.97;;
52744;SDS011;38637;49.984;20.426;2024-03-06T02:09:06;74.93;;;44.35;;
52744;SDS011;38637;49.984;20.426;2024-03-06T02:11:32;59.47;;;35.10;;
52744;SDS011;38637;49.984;20.426;2024-03-06T02:13:57;59.87;;;33.77;;
52744;SDS011;38637;49.984;20.426;2024-03-06T02:16:23;60.20;;;32.07;;
52744;SDS011;38637;49.984;20.426;2024-03-06T02:18:52;56.90;;;30.90;;
52744;SDS011;38637;49.984;20.426;2024-03-06T02:21:22;53.72;;;29.55;;
52744;SDS011;38637;49.984;20.426;2024-03-06T02:23:48;58.22;;;33.53;;
52744;SDS011;38637;49.984;20.426;2024-03-06T02:26:16;62.03;;;33.22;;
52744;SDS011;38637;49.984;20.426;2024-03-06T02:28:48;66.38;;;34.80;;
52744;SDS011;38637;49.984;20.426;2024-03-06T02:31:15;63.65;;;36.17;;
52744;SDS011;38637;49.984;20.426;2024-03-06T02:33:41;67.15;;;38.50;;
52744;SDS011;38637;49.984;20.426;2024-03-06T02:36:07;68.03;;;38.63;;
52744;SDS011;38637;49.984;20.426;2024-03-06T02:38:32;65.63;;;40.27;;
52744;SDS011;38637;49.984;20.426;2024-03-06T02:40:58;71.07;;;36.93;;
52744;SDS011;38637;49.984;20.426;2024-03-06T02:43:23;62.53;;;36.07;;
52744;SDS011;38637;49.984;20.426;2024-03-06T02:45:48;64.07;;;35.83;;
52744;SDS011;38637;49.984;20.426;2024-03-06T02:48:13;69.00;;;35.97;;
52744;SDS011;38637;49.984;20.426;2024-03-06T02:50:39;66.30;;;35.93;;
52744;SDS011;38637;49.984;20.426;2024-03-06T02:53:04;62.97;;;37.23;;
52744;SDS011;38637;49.984;20.426;2024-03-06T02:55:29;62.13;;;34.17;;
52744;SDS011;38637;49.984;20.426;2024-03-06T02:57:55;73.13;;;33.40;;
52744;SDS011;38637;49.984;20.426;2024-03-06T03:00:20;150.47;;;35.60;;
52744;SDS011;38637;49.984;20.426;2024-03-06T03:02:46;118.38;;;35.70;;
52744;SDS011;38637;49.984;20.426;2024-03-06T03:05:12;210.33;;;38.17;;
52744;SDS011;38637;49.984;20.426;2024-03-06T03:07:37;185.67;;;35.87;;
52744;SDS011;38637;49.984;20.426;2024-03-06T03:10:03;86.97;;;22.07;;
52744;SDS011;38637;49.984;20.426;2024-03-06T03:12:29;157.45;;;37.05;;
52744;SDS011;38637;49.984;20.426;2024-03-06T03:14:54;103.67;;;26.80;;
52744;SDS011;38637;49.984;20.426;2024-03-06T03:17:20;184.43;;;34.83;;
52744;SDS011;38637;49.984;20.426;2024-03-06T03:19:45;154.17;;;33.43;;
52744;SDS011;38637;49.984;20.426;2024-03-06T03:22:10;165.60;;;33.97;;
52744;SDS011;38637;49.984;20.426;2024-03-06T03:24:36;111.10;;;25.70;;
52744;SDS011;38637;49.984;20.426;2024-03-06T03:27:02;122.82;;;31.90;;
52744;SDS011;38637;49.984;20.426;2024-03-06T03:29:27;258.27;;;63.47;;
52744;SDS011;38637;49.984;20.426;2024-03-06T03:31:53;86.07;;;27.77;;
52744;SDS011;38637;49.984;20.426;2024-03-06T03:34:18;131.67;;;30.37;;
52744;SDS011;38637;49.984;20.426;2024-03-06T03:36:44;108.10;;;27.90;;
52744;SDS011;38637;49.984;20.426;2024-03-06T03:39:10;61.40;;;26.70;;
52744;SDS011;38637;49.984;20.426;2024-03-06T03:41:46;77.90;;;27.42;;
52744;SDS011;38637;49.984;20.426;2024-03-06T03:44:12;71.65;;;29.55;;
52744;SDS011;38637;49.984;20.426;2024-03-06T03:46:41;102.75;;;27.92;;
52744;SDS011;38637;49.984;20.426;2024-03-06T03:49:08;78.60;;;25.95;;
52744;SDS011;38637;49.984;20.426;2024-03-06T03:51:37;87.85;;;28.30;;
52744;SDS011;38637;49.984;20.426;2024-03-06T03:54:04;53.20;;;27.60;;
52744;SDS011;38637;49.984;20.426;2024-03-06T03:56:30;49.50;;;26.00;;
52744;SDS011;38637;49.984;20.426;2024-03-06T03:58:56;102.00;;;36.72;;
52744;SDS011;38637;49.984;20.426;2024-03-06T04:01:23;99.07;;;44.17;;
52744;SDS011;38637;49.984;20.426;2024-03-06T04:03:48;66.57;;;30.13;;
52744;SDS011;38637;49.984;20.426;2024-03-06T04:06:14;65.90;;;27.77;;
52744;SDS011;38637;49.984;20.426;2024-03-06T04:08:39;85.07;;;27.37;;
52744;SDS011;38637;49.984;20.426;2024-03-06T04:11:05;53.70;;;25.57;;
52744;SDS011;38637;49.984;20.426;2024-03-06T04:13:30;71.03;;;23.93;;
52744;SDS011;38637;49.984;20.426;2024-03-06T04:15:55;101.20;;;28.80;;
52744;SDS011;38637;49.984;20.426;2024-03-06T04:18:21;53.67;;;23.53;;
52744;SDS011;38637;49.984;20.426;2024-03-06T04:20:46;72.72;;;27.65;;
52744;SDS011;38637;49.984;20.426;2024-03-06T04:23:12;49.40;;;23.20;;
52744;SDS011;38637;49.984;20.426;2024-03-06T04:25:37;72.80;;;25.50;;
52744;SDS011;38637;49.984;20.426;2024-03-06T04:28:04;55.92;;;26.73;;
52744;SDS011;38637;49.984;20.426;2024-03-06T04:30:32;62.80;;;25.20;;
52744;SDS011;38637;49.984;20.426;2024-03-06T04:32:58;49.57;;;24.30;;
52744;SDS011;38637;49.984;20.426;2024-03-06T04:35:23;76.00;;;25.40;;
52744;SDS011;38637;49.984;20.426;2024-03-06T04:37:48;77.93;;;26.23;;
52744;SDS011;38637;49.984;20.426;2024-03-06T04:40:13;69.63;;;25.73;;
52744;SDS011;38637;49.984;20.426;2024-03-06T04:42:42;62.20;;;24.60;;
52744;SDS011;38637;49.984;20.426;2024-03-06T04:45:11;61.22;;;27.30;;
52744;SDS011;38637;49.984;20.426;2024-03-06T04:50:03;79.40;;;27.17;;
52744;SDS011;38637;49.984;20.426;2024-03-06T04:52:28;53.30;;;23.47;;
52744;SDS011;38637;49.984;20.426;2024-03-06T04:54:53;63.60;;;26.47;;
52744;SDS011;38637;49.984;20.426;2024-03-06T04:57:19;69.27;;;25.87;;
52744;SDS011;38637;49.984;20.426;2024-03-06T04:59:44;64.67;;;25.30;;
52744;SDS011;38637;49.984;20.426;2024-03-06T05:02:09;62.50;;;27.07;;
52744;SDS011;38637;49.984;20.426;2024-03-06T05:04:35;64.60;;;24.83;;
52744;SDS011;38637;49.984;20.426;2024-03-06T05:07:01;59.77;;;26.83;;
52744;SDS011;38637;49.984;20.426;2024-03-06T05:09:26;67.07;;;24.67;;
52744;SDS011;38637;49.984;20.426;2024-03-06T05:11:52;69.70;;;24.30;;
52744;SDS011;38637;49.984;20.426;2024-03-06T05:14:17;51.90;;;25.90;;
52744;SDS011;38637;49.984;20.426;2024-03-06T05:16:42;51.20;;;27.83;;
52744;SDS011;38637;49.984;20.426;2024-03-06T05:19:08;72.67;;;30.07;;
52744;SDS011;38637;49.984;20.426;2024-03-06T05:21:35;62.72;;;28.52;;
52744;SDS011;38637;49.984;20.426;2024-03-06T05:24:00;66.17;;;30.63;;
52744;SDS011;38637;49.984;20.426;2024-03-06T05:26:26;67.23;;;27.07;;
52744;SDS011;38637;49.984;20.426;2024-03-06T05:28:51;48.00;;;25.77;;
52744;SDS011;38637;49.984;20.426;2024-03-06T05:31:17;54.17;;;23.97;;
52744;SDS011;38637;49.984;20.426;2024-03-06T05:33:48;53.10;;;27.42;;
52744;SDS011;38637;49.984;20.426;2024-03-06T05:36:14;48.38;;;23.67;;
52744;SDS011;38637;49.984;20.426;2024-03-06T05:38:40;44.87;;;25.13;;
52744;SDS011;38637;49.984;20.426;2024-03-06T05:41:06;53.40;;;26.30;;
52744;SDS011;38637;49.984;20.426;2024-03-06T05:43:31;52.30;;;27.83;;
52744;SDS011;38637;49.984;20.426;2024-03-06T05:45:56;50.40;;;25.97;;
52744;SDS011;38637;49.984;20.426;2024-03-06T05:48:22;58.90;;;28.70;;
52744;SDS011;38637;49.984;20.426;2024-03-06T05:50:49;57.72;;;29.60;;
52744;SDS011;38637;49.984;20.426;2024-03-06T05:53:14;70.73;;;29.83;;
52744;SDS011;38637;49.984;20.426;2024-03-06T05:55:39;58.80;;;27.83;;
52744;SDS011;38637;49.984;20.426;2024-03-06T05:58:04;59.97;;;28.40;;
52744;SDS011;38637;49.984;20.426;2024-03-06T06:00:30;60.47;;;28.20;;
52744;SDS011;38637;49.984;20.426;2024-03-06T06:02:56;67.33;;;31.43;;
52744;SDS011;38637;49.984;20.426;2024-03-06T06:05:21;77.13;;;40.03;;
52744;SDS011;38637;49.984;20.426;2024-03-06T06:07:48;71.18;;;36.83;;
52744;SDS011;38637;49.984;20.426;2024-03-06T06:10:13;66.30;;;32.22;;
52744;SDS011;38637;49.984;20.426;2024-03-06T06:12:39;57.97;;;29.07;;
52744;SDS011;38637;49.984;20.426;2024-03-06T06:15:04;64.93;;;28.87;;
52744;SDS011;38637;49.984;20.426;2024-03-06T06:17:32;75.82;;;33.95;;
52744;SDS011;38637;49.984;20.426;2024-03-06T06:19:57;69.03;;;32.50;;
52744;SDS011;38637;49.984;20.426;2024-03-06T06:22:22;73.07;;;34.63;;
52744;SDS011;38637;49.984;20.426;2024-03-06T06:24:48;74.37;;;33.13;;
52744;SDS011;38637;49.984;20.426;2024-03-06T06:27:13;71.60;;;32.93;;
52744;SDS011;38637;49.984;20.426;2024-03-06T06:29:38;70.70;;;31.27;;
52744;SDS011;38637;49.984;20.426;2024-03-06T06:32:04;73.07;;;30.00;;
52744;SDS011;38637;49.984;20.426;2024-03-06T06:34:29;64.07;;;30.73;;
52744;SDS011;38637;49.984;20.426;2024-03-06T06:36:56;77.90;;;32.30;;
52744;SDS011;38637;49.984;20.426;2024-03-06T06:39:21;76.40;;;32.73;;
52744;SDS011;38637;49.984;20.426;2024-03-06T06:41:47;68.13;;;32.40;;
52744;SDS011;38637;49.984;20.426;2024-03-06T06:44:12;75.93;;;33.37;;
52744;SDS011;38637;49.984;20.426;2024-03-06T06:46:38;69.27;;;32.20;;
52744;SDS011;38637;49.984;20.426;2024-03-06T06:49:04;67.18;;;31.30;;
52744;SDS011;38637;49.984;20.426;2024-03-06T06:51:29;65.13;;;30.20;;
52744;SDS011;38637;49.984;20.426;2024-03-06T06:53:55;72.70;;;32.07;;
52744;SDS011;38637;49.984;20.426;2024-03-06T06:56:20;62.23;;;32.13;;
52744;SDS011;38637;49.984;20.426;2024-03-06T06:58:48;82.63;;;54.92;;
52744;SDS011;38637;49.984;20.426;2024-03-06T07:01:14;64.57;;;31.80;;
52744;SDS011;38637;49.984;20.426;2024-03-06T07:03:41;66.10;;;32.00;;
52744;SDS011;38637;49.984;20.426;2024-03-06T07:06:07;61.57;;;29.50;;
52744;SDS011;38637;49.984;20.426;2024-03-06T07:08:32;67.80;;;30.37;;
52744;SDS011;38637;49.984;20.426;2024-03-06T07:10:57;62.73;;;30.30;;
52744;SDS011;38637;49.984;20.426;2024-03-06T07:13:23;60.80;;;30.60;;
52744;SDS011;38637;49.984;20.426;2024-03-06T07:15:48;56.70;;;28.40;;
52744;SDS011;38637;49.984;20.426;2024-03-06T07:18:13;65.63;;;34.77;;
52744;SDS011;38637;49.984;20.426;2024-03-06T07:20:39;79.33;;;39.57;;
52744;SDS011;38637;49.984;20.426;2024-03-06T07:23:06;66.00;;;34.08;;
52744;SDS011;38637;49.984;20.426;2024-03-06T07:25:31;62.23;;;34.43;;
52744;SDS011;38637;49.984;20.426;2024-03-06T07:27:57;71.77;;;40.00;;
52744;SDS011;38637;49.984;20.426;2024-03-06T07:30:22;60.47;;;31.57;;
52744;SDS011;38637;49.984;20.426;2024-03-06T07:32:48;67.30;;;35.33;;
52744;SDS011;38637;49.984;20.426;2024-03-06T07:35:13;64.60;;;33.67;;
52744;SDS011;38637;49.984;20.426;2024-03-06T07:37:39;62.83;;;32.53;;
52744;SDS011;38637;49.984;20.426;2024-03-06T07:40:05;60.87;;;31.00;;
52744;SDS011;38637;49.984;20.426;2024-03-06T07:42:34;65.57;;;35.00;;
52744;SDS011;38637;49.984;20.426;2024-03-06T07:45:00;56.67;;;31.10;;
52744;SDS011;38637;49.984;20.426;2024-03-06T07:47:25;61.87;;;33.67;;
52744;SDS011;38637;49.984;20.426;2024-03-06T07:49:50;50.30;;;28.07;;
52744;SDS011;38637;49.984;20.426;2024-03-06T07:52:16;62.33;;;31.60;;
52744;SDS011;38637;49.984;20.426;2024-03-06T07:54:41;52.23;;;29.67;;
52744;SDS011;38637;49.984;20.426;2024-03-06T07:57:06;56.20;;;32.53;;
52744;SDS011;38637;49.984;20.426;2024-03-06T07:59:32;52.50;;;29.47;;
52744;SDS011;38637;49.984;20.426;2024-03-06T08:01:57;57.40;;;32.47;;
52744;SDS011;38637;49.984;20.426;2024-03-06T08:04:22;53.00;;;29.83;;
52744;SDS011;38637;49.984;20.426;2024-03-06T08:06:48;54.30;;;31.27;;
52744;SDS011;38637;49.984;20.426;2024-03-06T08:09:14;55.77;;;30.53;;
52744;SDS011;38637;49.984;20.426;2024-03-06T08:11:41;51.75;;;29.83;;
52744;SDS011;38637;49.984;20.426;2024-03-06T08:14:07;54.77;;;28.83;;
52744;SDS011;38637;49.984;20.426;2024-03-06T08:16:32;50.50;;;29.20;;
52744;SDS011;38637;49.984;20.426;2024-03-06T08:18:58;49.35;;;28.33;;
52744;SDS011;38637;49.984;20.426;2024-03-06T08:21:25;52.00;;;30.13;;
52744;SDS011;38637;49.984;20.426;2024-03-06T08:23:50;51.07;;;26.87;;
52744;SDS011;38637;49.984;20.426;2024-03-06T08:26:15;47.87;;;27.87;;
52744;SDS011;38637;49.984;20.426;2024-03-06T08:28:41;50.63;;;31.00;;
52744;SDS011;38637;49.984;20.426;2024-03-06T08:31:06;54.20;;;32.53;;
52744;SDS011;38637;49.984;20.426;2024-03-06T08:33:33;49.55;;;28.95;;
52744;SDS011;38637;49.984;20.426;2024-03-06T08:35:58;44.60;;;25.37;;
52744;SDS011;38637;49.984;20.426;2024-03-06T08:38:24;45.53;;;27.40;;
52744;SDS011;38637;49.984;20.426;2024-03-06T08:40:49;56.03;;;31.23;;
52744;SDS011;38637;49.984;20.426;2024-03-06T08:43:15;53.37;;;29.87;;
52744;SDS011;38637;49.984;20.426;2024-03-06T08:45:41;47.87;;;28.63;;
52744;SDS011;38637;49.984;20.426;2024-03-06T08:48:07;38.92;;;21.55;;
52744;SDS011;38637;49.984;20.426;2024-03-06T08:50:32;53.67;;;30.97;;
52744;SDS011;38637;49.984;20.426;2024-03-06T08:52:57;48.07;;;28.60;;
52744;SDS011;38637;49.984;20.426;2024-03-06T08:55:23;87.87;;;41.80;;
52744;SDS011;38637;49.984;20.426;2024-03-06T08:57:48;58.37;;;34.37;;
52744;SDS011;38637;49.984;20.426;2024-03-06T09:00:15;57.50;;;32.92;;
52744;SDS011;38637;49.984;20.426;2024-03-06T09:05:07;44.78;;;26.25;;
52744;SDS011;38637;49.984;20.426;2024-03-06T09:07:35;52.97;;;29.30;;
52744;SDS011;38637;49.984;20.426;2024-03-06T09:10:06;47.17;;;26.08;;
52744;SDS011;38637;49.984;20.426;2024-03-06T09:12:32;58.03;;;30.63;;
52744;SDS011;38637;49.984;20.426;2024-03-06T09:14:58;61.87;;;33.13;;
52744;SDS011;38637;49.984;20.426;2024-03-06T09:17:25;49.35;;;26.88;;
52744;SDS011;38637;49.984;20.426;2024-03-06T09:19:51;47.43;;;26.93;;
52744;SDS011;38637;49.984;20.426;2024-03-06T09:22:16;50.27;;;27.20;;
52744;SDS011;38637;49.984;20.426;2024-03-06T09:24:42;77.80;;;37.30;;
52744;SDS011;38637;49.984;20.426;2024-03-06T09:27:07;73.77;;;38.17;;
52744;SDS011;38637;49.984;20.426;2024-03-06T09:29:33;64.90;;;33.00;;
52744;SDS011;38637;49.984;20.426;2024-03-06T09:31:58;63.23;;;32.03;;
52744;SDS011;38637;49.984;20.426;2024-03-06T09:34:24;60.08;;;31.45;;
52744;SDS011;38637;49.984;20.426;2024-03-06T09:36:49;49.23;;;29.30;;
52744;SDS011;38637;49.984;20.426;2024-03-06T09:39:16;42.13;;;25.13;;
52744;SDS011;38637;49.984;20.426;2024-03-06T09:41:54;48.08;;;28.50;;
52744;SDS011;38637;49.984;20.426;2024-03-06T09:44:22;49.70;;;29.23;;
52744;SDS011;38637;49.984;20.426;2024-03-06T09:46:48;45.23;;;27.77;;
52744;SDS011;38637;49.984;20.426;2024-03-06T09:49:16;49.80;;;29.98;;
52744;SDS011;38637;49.984;20.426;2024-03-06T09:51:47;46.35;;;28.67;;
52744;SDS011;38637;49.984;20.426;2024-03-06T09:54:17;48.10;;;28.63;;
52744;SDS011;38637;49.984;20.426;2024-03-06T09:56:44;39.33;;;24.83;;
52744;SDS011;38637;49.984;20.426;2024-03-06T09:59:10;45.47;;;26.80;;
52744;SDS011;38637;49.984;20.426;2024-03-06T10:01:40;48.95;;;27.27;;
52744;SDS011;38637;49.984;20.426;2024-03-06T10:06:45;48.67;;;30.73;;
52744;SDS011;38637;49.984;20.426;2024-03-06T10:09:11;45.85;;;30.33;;
52744;SDS011;38637;49.984;20.426;2024-03-06T10:11:40;37.67;;;23.93;;
52744;SDS011;38637;49.984;20.426;2024-03-06T10:14:05;40.63;;;23.70;;
52744;SDS011;38637;49.984;20.426;2024-03-06T10:16:30;41.73;;;24.83;;
52744;SDS011;38637;49.984;20.426;2024-03-06T10:18:56;43.97;;;25.77;;
52744;SDS011;38637;49.984;20.426;2024-03-06T10:21:31;51.10;;;29.40;;
52744;SDS011;38637;49.984;20.426;2024-03-06T10:24:00;41.08;;;25.98;;
52744;SDS011;38637;49.984;20.426;2024-03-06T10:26:25;40.03;;;24.87;;
52744;SDS011;38637;49.984;20.426;2024-03-06T10:28:50;43.07;;;24.20;;
52744;SDS011;38637;49.984;20.426;2024-03-06T10:31:26;43.30;;;26.23;;
52744;SDS011;38637;49.984;20.426;2024-03-06T10:33:51;41.00;;;26.33;;
52744;SDS011;38637;49.984;20.426;2024-03-06T10:36:18;51.70;;;30.25;;
52744;SDS011;38637;49.984;20.426;2024-03-06T10:38:43;52.17;;;29.43;;
52744;SDS011;38637;49.984;20.426;2024-03-06T10:41:10;38.38;;;23.40;;
52744;SDS011;38637;49.984;20.426;2024-03-06T10:43:39;35.65;;;20.50;;
52744;SDS011;38637;49.984;20.426;2024-03-06T10:46:06;38.97;;;24.85;;
52744;SDS011;38637;49.984;20.426;2024-03-06T10:48:36;40.33;;;25.35;;
52744;SDS011;38637;49.984;20.426;2024-03-06T10:53:28;52.95;;;29.33;;
52744;SDS011;38637;49.984;20.426;2024-03-06T10:55:55;47.35;;;30.30;;
52744;SDS011;38637;49.984;20.426;2024-03-06T10:58:22;42.30;;;25.52;;
52744;SDS011;38637;49.984;20.426;2024-03-06T11:00:48;44.75;;;24.83;;
52744;SDS011;38637;49.984;20.426;2024-03-06T11:03:16;40.63;;;24.05;;
52744;SDS011;38637;49.984;20.426;2024-03-06T11:05:42;41.37;;;23.13;;
52744;SDS011;38637;49.984;20.426;2024-03-06T11:08:09;37.92;;;22.70;;
52744;SDS011;38637;49.984;20.426;2024-03-06T11:10:37;37.28;;;23.67;;
52744;SDS011;38637;49.984;20.426;2024-03-06T11:13:04;43.33;;;27.40;;
52744;SDS011;38637;49.984;20.426;2024-03-06T11:15:46;49.50;;;29.08;;
52744;SDS011;38637;49.984;20.426;2024-03-06T11:21:41;46.25;;;27.60;;
52744;SDS011;38637;49.984;20.426;2024-03-06T11:26:57;41.78;;;26.38;;
52744;SDS011;38637;49.984;20.426;2024-03-06T11:29:23;40.95;;;26.13;;
52744;SDS011;38637;49.984;20.426;2024-03-06T11:32:00;51.40;;;30.50;;
52744;SDS011;38637;49.984;20.426;2024-03-06T11:34:32;54.95;;;33.47;;
52744;SDS011;38637;49.984;20.426;2024-03-06T11:36:57;44.10;;;29.10;;
52744;SDS011;38637;49.984;20.426;2024-03-06T11:39:23;46.63;;;28.65;;
52744;SDS011;38637;49.984;20.426;2024-03-06T11:41:50;47.90;;;30.73;;
52744;SDS011;38637;49.984;20.426;2024-03-06T11:44:16;46.08;;;28.38;;
52744;SDS011;38637;49.984;20.426;2024-03-06T11:49:19;40.97;;;25.08;;
52744;SDS011;38637;49.984;20.426;2024-03-06T11:51:46;42.95;;;24.65;;
52744;SDS011;38637;49.984;20.426;2024-03-06T11:54:12;40.60;;;25.80;;
52744;SDS011;38637;49.984;20.426;2024-03-06T11:56:42;43.83;;;24.87;;
52744;SDS011;38637;49.984;20.426;2024-03-06T11:59:10;36.53;;;23.70;;
52744;SDS011;38637;49.984;20.426;2024-03-06T12:01:37;41.17;;;24.00;;
52744;SDS011;38637;49.984;20.426;2024-03-06T12:04:03;42.63;;;24.87;;
52744;SDS011;38637;49.984;20.426;2024-03-06T12:06:32;44.58;;;26.48;;
52744;SDS011;38637;49.984;20.426;2024-03-06T12:08:57;42.58;;;24.23;;
52744;SDS011;38637;49.984;20.426;2024-03-06T12:11:23;45.17;;;26.57;;
52744;SDS011;38637;49.984;20.426;2024-03-06T12:13:50;40.28;;;25.70;;
52744;SDS011;38637;49.984;20.426;2024-03-06T12:16:16;55.33;;;34.63;;
52744;SDS011;38637;49.984;20.426;2024-03-06T12:18:42;43.93;;;28.00;;
52744;SDS011;38637;49.984;20.426;2024-03-06T12:21:07;49.87;;;29.83;;
52744;SDS011;38637;49.984;20.426;2024-03-06T12:23:32;48.90;;;25.47;;
52744;SDS011;38637;49.984;20.426;2024-03-06T12:26:16;49.40;;;28.27;;
52744;SDS011;38637;49.984;20.426;2024-03-06T12:28:47;45.00;;;28.15;;
52744;SDS011;38637;49.984;20.426;2024-03-06T12:31:12;43.03;;;26.23;;
52744;SDS011;38637;49.984;20.426;2024-03-06T12:33:38;43.67;;;26.40;;
52744;SDS011;38637;49.984;20.426;2024-03-06T12:36:04;50.87;;;27.77;;
52744;SDS011;38637;49.984;20.426;2024-03-06T12:38:30;48.78;;;29.80;;
52744;SDS011;38637;49.984;20.426;2024-03-06T12:40:56;41.43;;;26.00;;
52744;SDS011;38637;49.984;20.426;2024-03-06T12:43:21;40.33;;;24.87;;
52744;SDS011;38637;49.984;20.426;2024-03-06T12:45:47;41.23;;;25.03;;
52744;SDS011;38637;49.984;20.426;2024-03-06T12:48:12;37.97;;;22.37;;
52744;SDS011;38637;49.984;20.426;2024-03-06T12:50:38;40.77;;;25.17;;
52744;SDS011;38637;49.984;20.426;2024-03-06T12:53:03;42.30;;;23.93;;
52744;SDS011;38637;49.984;20.426;2024-03-06T12:55:29;40.85;;;24.00;;
52744;SDS011;38637;49.984;20.426;2024-03-06T12:57:56;41.58;;;26.45;;
52744;SDS011;38637;49.984;20.426;2024-03-06T13:00:22;42.53;;;24.47;;
52744;SDS011;38637;49.984;20.426;2024-03-06T13:02:47;34.37;;;22.67;;
52744;SDS011;38637;49.984;20.426;2024-03-06T13:05:12;36.90;;;22.43;;
52744;SDS011;38637;49.984;20.426;2024-03-06T13:07:38;39.70;;;24.50;;
52744;SDS011;38637;49.984;20.426;2024-03-06T13:10:04;36.28;;;22.90;;
52744;SDS011;38637;49.984;20.426;2024-03-06T13:12:30;36.83;;;21.90;;
52744;SDS011;38637;49.984;20.426;2024-03-06T13:14:55;39.20;;;24.43;;
52744;SDS011;38637;49.984;20.426;2024-03-06T13:17:21;42.27;;;23.77;;
52744;SDS011;38637;49.984;20.426;2024-03-06T13:19:46;40.03;;;24.83;;
52744;SDS011;38637;49.984;20.426;2024-03-06T13:22:12;36.63;;;23.40;;
52744;SDS011;38637;49.984;20.426;2024-03-06T13:24:37;37.53;;;25.57;;
52744;SDS011;38637;49.984;20.426;2024-03-06T13:27:03;36.57;;;22.93;;
52744;SDS011;38637;49.984;20.426;2024-03-06T13:29:32;38.40;;;25.27;;
52744;SDS011;38637;49.984;20.426;2024-03-06T13:31:58;37.03;;;24.75;;
52744;SDS011;38637;49.984;20.426;2024-03-06T13:34:27;34.00;;;24.17;;
52744;SDS011;38637;49.984;20.426;2024-03-06T13:36:56;30.08;;;21.35;;
52744;SDS011;38637;49.984;20.426;2024-03-06T13:39:21;38.43;;;23.77;;
52744;SDS011;38637;49.984;20.426;2024-03-06T13:41:47;53.43;;;33.80;;
52744;SDS011;38637;49.984;20.426;2024-03-06T13:44:17;45.20;;;29.88;;
52744;SDS011;38637;49.984;20.426;2024-03-06T13:52:06;28.67;;;18.48;;
52744;SDS011;38637;49.984;20.426;2024-03-06T13:54:45;33.92;;;22.98;;
52744;SDS011;38637;49.984;20.426;2024-03-06T13:57:10;39.55;;;24.90;;
52744;SDS011;38637;49.984;20.426;2024-03-06T13:59:36;45.97;;;30.13;;
52744;SDS011;38637;49.984;20.426;2024-03-06T14:02:02;54.08;;;34.72;;
52744;SDS011;38637;49.984;20.426;2024-03-06T14:04:28;63.55;;;41.65;;
52744;SDS011;38637;49.984;20.426;2024-03-06T14:06:54;58.23;;;38.37;;
52744;SDS011;38637;49.984;20.426;2024-03-06T14:09:20;45.77;;;30.17;;
52744;SDS011;38637;49.984;20.426;2024-03-06T14:11:48;38.70;;;25.73;;
52744;SDS011;38637;49.984;20.426;2024-03-06T14:14:14;38.97;;;24.40;;
52744;SDS011;38637;49.984;20.426;2024-03-06T14:16:39;36.73;;;23.47;;
52744;SDS011;38637;49.984;20.426;2024-03-06T14:19:05;35.10;;;23.30;;
52744;SDS011;38637;49.984;20.426;2024-03-06T14:21:30;36.53;;;23.80;;
52744;SDS011;38637;49.984;20.426;2024-03-06T14:23:57;41.23;;;22.97;;
52744;SDS011;38637;49.984;20.426;2024-03-06T14:26:24;35.95;;;22.45;;